Time;durP1;ratioP1;P1;durP2;ratioP2;P2;SDS_P1;SDS_P2;PMS_P1;PMS_P2;Temp;Humidity;BMP_temperature;BMP_pressure;BME280_temperature;BME280_humidity;BME280_pressure;Samples;Min_cycle;Max_cycle;Signal;HPM_P1;HPM_P2
2023/06/16 00:05:48;;;;;;;8.03;4.20;;;17.50;55.30;;;;;;21118149;28;20256;-60
2023/06/16 00:15:51;;;;;;;4.80;3.90;;;17.30;55.70;;;;;;21126171;28;20332;-61
2023/06/16 00:25:53;;;;;;;5.53;3.93;;;;;;;;;;21117603;28;20373;-62
2023/06/16 00:35:54;;;;;;;8.73;4.13;;;17.10;56.50;;;;;;21113802;28;20321;-60
2023/06/16 00:45:57;;;;;;;6.33;4.13;;;16.70;56.60;;;;;;21088280;28;20234;-61
2023/06/16 00:55:59;;;;;;;5.67;3.93;;;;;;;;;;21122338;28;20232;-61
2023/06/16 01:06:15;;;;;;;6.90;4.20;;;16.70;56.90;;;;;;21149678;28;20599;-68
2023/06/16 01:25:38;;;;;;;4.70;3.80;;;16.70;57.10;;;;;;21010497;28;20593;-70
2023/06/16 01:35:41;;;;;;;5.90;4.00;;;16.50;57.50;;;;;;20984606;28;20210;-68
2023/06/16 01:45:44;;;;;;;8.20;4.30;;;16.30;57.90;;;;;;20985697;28;20712;-71
2023/06/16 01:55:50;;;;;;;7.97;4.73;;;16.10;58.10;;;;;;20983759;28;20245;-61
2023/06/16 02:05:54;;;;;;;5.40;4.20;;;16.00;58.90;;;;;;20981232;28;20674;-62
2023/06/16 02:15:56;;;;;;;8.73;4.77;;;;;;;;;;20980069;28;20245;-62
2023/06/16 02:25:58;;;;;;;9.60;4.40;;;16.00;59.70;;;;;;20980729;28;20241;-62
2023/06/16 02:36:00;;;;;;;11.33;4.67;;;;;;;;;;20929108;28;20243;-64
2023/06/16 02:46:03;;;;;;;6.83;4.17;;;;;;;;;;20923094;28;20302;-65
2023/06/16 02:56:06;;;;;;;8.47;4.40;;;;;;;;;;20922604;28;20228;-61
2023/06/16 03:06:09;;;;;;;10.97;4.53;;;;;;;;;;20921596;28;20207;-60
2023/06/16 03:16:12;;;;;;;6.67;4.27;;;;;;;;;;20920564;28;20239;-61
2023/06/16 03:26:14;;;;;;;5.13;4.13;;;;;;;;;;20920539;28;20678;-62
2023/06/16 03:36:16;;;;;;;10.30;4.20;;;;;;;;;;20918261;28;20326;-60
2023/06/16 03:46:18;;;;;;;9.83;4.30;;;;;;;;;;20917472;28;20215;-61
2023/06/16 03:56:21;;;;;;;9.60;4.57;;;;;;;;;;20917825;28;20230;-69
2023/06/16 04:06:24;;;;;;;11.60;4.70;;;16.80;64.30;;;;;;20917168;28;20215;-68
2023/06/16 04:16:26;;;;;;;8.30;4.80;;;;;;;;;;20919331;28;20238;-75
2023/06/16 04:26:29;;;;;;;8.87;5.10;;;15.30;62.60;;;;;;20884454;28;20287;-74
2023/06/16 04:36:31;;;;;;;8.30;5.10;;;15.30;62.60;;;;;;20914296;28;20557;-63
2023/06/16 04:46:32;;;;;;;6.70;5.13;;;15.40;63.30;;;;;;20913759;28;20208;-62
2023/06/16 04:56:34;;;;;;;9.50;4.67;;;15.50;63.80;;;;;;20912893;28;20323;-63
2023/06/16 05:06:36;;;;;;;9.77;5.10;;;15.50;63.60;;;;;;20912404;28;20668;-72
2023/06/16 05:16:38;;;;;;;13.47;6.30;;;15.60;64.00;;;;;;20911465;28;20262;-68
2023/06/16 05:26:41;;;;;;;17.07;6.20;;;16.00;64.00;;;;;;20911101;28;20213;-69
2023/06/16 05:36:43;;;;;;;14.67;6.90;;;16.20;63.40;;;;;;20910461;28;20325;-67
2023/06/16 05:46:44;;;;;;;28.97;11.40;;;16.50;62.90;;;;;;20907373;28;20211;-70
2023/06/16 05:56:46;;;;;;;24.40;9.00;;;16.80;62.00;;;;;;20897522;28;20315;-69
2023/06/16 06:06:48;;;;;;;29.77;10.17;;;17.10;61.50;;;;;;20916216;28;20207;-70
2023/06/16 06:16:53;;;;;;;23.23;8.17;;;17.50;60.80;;;;;;20923374;28;20614;-69
2023/06/16 06:26:57;;;;;;;24.07;6.80;;;17.90;60.20;;;;;;20923114;28;20217;-71
2023/06/16 06:36:59;;;;;;;14.73;6.43;;;18.40;59.10;;;;;;20923999;28;20280;-70
2023/06/16 06:47:01;;;;;;;8.63;5.73;;;18.80;58.20;;;;;;20923563;28;20557;-69
2023/06/16 06:57:03;;;;;;;11.47;5.83;;;19.20;57.30;;;;;;20923402;28;20237;-69
2023/06/16 07:07:07;;;;;;;11.27;5.83;;;19.60;56.30;;;;;;20921127;28;20233;-69
2023/06/16 07:17:09;;;;;;;13.83;4.63;;;19.80;55.30;;;;;;20919144;28;20602;-69
2023/06/16 07:27:11;;;;;;;9.80;5.20;;;20.50;53.30;;;;;;20918543;28;20211;-69
2023/06/16 07:37:13;;;;;;;13.13;5.20;;;20.80;52.80;;;;;;20916839;28;20315;-69
2023/06/16 07:47:15;;;;;;;17.60;5.93;;;20.80;53.20;;;;;;20917124;28;20297;-69
2023/06/16 07:57:17;;;;;;;9.30;5.00;;;21.20;52.80;;;;;;20916072;28;20228;-67
2023/06/16 08:07:18;;;;;;;8.80;4.67;;;21.40;52.00;;;;;;20915916;28;20682;-64
2023/06/16 08:17:20;;;;;;;6.20;4.10;;;21.70;51.30;;;;;;20914438;28;20347;-64
2023/06/16 08:27:22;;;;;;;14.00;3.70;;;22.10;50.40;;;;;;20913440;28;20211;-65
2023/06/16 08:37:25;;;;;;;12.17;4.20;;;22.20;48.20;;;;;;20913145;28;20656;-63
2023/06/16 08:47:32;;;;;;;13.37;4.40;;;22.40;47.30;;;;;;20912179;28;20208;-66
2023/06/16 08:57:42;;;;;;;9.50;4.20;;;22.70;47.30;;;;;;20909930;28;20235;-69
2023/06/16 09:07:44;;;;;;;6.47;4.00;;;23.00;47.60;;;;;;20910657;28;20200;-68
2023/06/16 09:17:48;;;;;;;6.30;4.10;;;23.10;47.60;;;;;;20911336;28;20773;-68
2023/06/16 09:27:55;;;;;;;6.53;4.20;;;23.40;48.00;;;;;;20911145;28;20303;-63
2023/06/16 09:38:00;;;;;;;6.80;4.40;;;23.80;48.10;;;;;;20911030;28;20232;-63
2023/06/16 09:48:08;;;;;;;7.13;4.33;;;24.00;48.00;;;;;;20870083;28;20209;-63
2023/06/16 09:58:10;;;;;;;7.20;4.17;;;23.90;47.90;;;;;;20840822;28;20235;-62
2023/06/16 10:08:17;;;;;;;12.57;4.00;;;24.10;47.00;;;;;;20856024;28;20236;-63
2023/06/16 10:18:21;;;;;;;3.50;3.20;;;24.40;45.80;;;;;;20840535;28;20247;-62
2023/06/16 10:28:23;;;;;;;5.07;3.27;;;24.70;43.40;;;;;;20841263;28;20236;-68
2023/06/16 10:38:35;;;;;;;4.57;3.40;;;24.90;41.50;;;;;;20840611;28;20695;-72
2023/06/16 10:48:56;;;;;;;6.83;3.50;;;24.80;41.40;;;;;;20838833;28;20210;-66
2023/06/16 10:58:58;;;;;;;7.87;3.53;;;24.80;41.20;;;;;;20839116;28;20256;-67
2023/06/16 11:09:05;;;;;;;6.33;3.20;;;25.00;41.10;;;;;;20837860;28;20668;-70
2023/06/16 11:19:06;;;;;;;4.30;3.43;;;25.20;40.80;;;;;;20836465;28;20719;-70
2023/06/16 11:29:08;;;;;;;7.70;3.60;;;25.20;41.00;;;;;;20836046;28;20223;-64
2023/06/16 11:39:11;;;;;;;5.20;3.97;;;25.40;41.00;;;;;;20835231;28;20267;-71
2023/06/16 11:49:14;;;;;;;6.53;3.17;;;25.60;40.70;;;;;;20835066;28;20678;-64
2023/06/16 11:59:17;;;;;;;5.67;3.57;;;26.10;40.20;;;;;;20832840;28;20677;-67
2023/06/16 12:09:20;;;;;;;9.50;3.20;;;25.90;41.00;;;;;;20831002;28;20343;-65
2023/06/16 12:19:22;;;;;;;4.00;2.87;;;25.80;40.40;;;;;;20829906;28;20676;-64
2023/06/16 12:29:27;;;;;;;3.30;3.00;;;25.80;40.80;;;;;;20831814;28;20216;-71
2023/06/16 12:39:30;;;;;;;7.17;3.27;;;25.50;41.20;;;;;;20830319;28;20258;-72
2023/06/16 12:49:32;;;;;;;9.63;3.50;;;25.60;41.50;;;;;;20830070;28;20578;-63
2023/06/16 12:59:34;;;;;;;5.60;3.40;;;25.80;41.80;;;;;;20860931;28;20236;-61
2023/06/16 13:09:37;;;;;;;11.20;7.63;;;25.90;41.90;;;;;;20828930;28;20259;-63
2023/06/16 13:19:39;;;;;;;8.50;4.43;;;25.90;41.60;;;;;;20828073;28;20236;-64
2023/06/16 13:29:41;;;;;;;7.63;3.10;;;25.50;42.20;;;;;;20828221;28;20204;-72
2023/06/16 13:39:43;;;;;;;5.60;3.10;;;25.30;42.40;;;;;;20828052;28;20704;-64
2023/06/16 13:49:45;;;;;;;7.30;2.93;;;25.30;42.50;;;;;;20850449;28;20242;-62
2023/06/16 13:59:47;;;;;;;3.97;3.50;;;25.70;41.30;;;;;;20908926;28;20228;-73
2023/06/16 14:09:48;;;;;;;5.37;3.03;;;26.00;40.90;;;;;;20909977;28;20592;-68
2023/06/16 14:19:50;;;;;;;7.70;3.73;;;25.60;41.70;;;;;;20907777;28;20584;-63
2023/06/16 14:29:52;;;;;;;4.97;2.67;;;25.10;42.40;;;;;;20918371;28;20234;-61
2023/06/16 14:39:54;;;;;;;3.07;1.97;;;24.90;43.30;;;;;;20924942;28;20267;-70
2023/06/16 14:49:55;;;;;;;3.67;2.40;;;24.80;42.50;;;;;;20928120;28;20290;-65
2023/06/16 14:59:57;;;;;;;3.17;2.67;;;25.00;42.60;;;;;;20921203;28;20741;-70
2023/06/16 15:09:59;;;;;;;4.30;2.90;;;25.40;43.80;;;;;;20921796;28;20218;-69
2023/06/16 15:20:00;;;;;;;6.10;3.00;;;25.30;44.80;;;;;;20920544;28;20239;-71
2023/06/16 15:30:02;;;;;;;5.40;3.42;;;26.30;44.10;;;;;;20920095;28;20236;-70
2023/06/16 15:40:05;;;;;;;8.88;3.00;;;27.10;43.00;;;;;;20918012;28;20254;-72
2023/06/16 15:50:07;;;;;;;4.10;3.30;;;28.20;41.30;;;;;;20918805;28;20208;-73
2023/06/16 16:00:09;;;;;;;7.05;4.40;;;31.50;37.00;;;;;;20917607;28;20318;-62
2023/06/16 16:10:11;;;;;;;7.68;3.88;;;31.70;35.30;;;;;;20916880;28;20566;-64
2023/06/16 16:20:13;;;;;;;5.60;3.38;;;31.90;33.50;;;;;;20915190;28;20239;-64
2023/06/16 16:30:15;;;;;;;7.53;3.10;;;34.50;33.00;;;;;;20915059;28;20226;-63
2023/06/16 16:40:17;;;;;;;3.97;3.42;;;31.70;35.40;;;;;;20914639;28;20339;-71
2023/06/16 16:50:19;;;;;;;4.55;3.50;;;29.60;37.30;;;;;;20913629;28;20200;-65
2023/06/16 17:00:21;;;;;;;4.93;3.73;;;27.70;38.40;;;;;;20913284;28;20231;-68
2023/06/16 17:10:23;;;;;;;7.03;3.30;;;27.70;39.30;;;;;;20913453;28;20673;-73
2023/06/16 17:20:25;;;;;;;6.97;3.60;;;30.50;36.90;;;;;;20912133;28;20825;-70
2023/06/16 17:30:27;;;;;;;7.53;3.80;;;28.50;38.50;;;;;;20911143;28;20214;-71
2023/06/16 17:40:31;;;;;;;5.00;4.53;;;33.10;34.60;;;;;;20910933;28;20271;-74
2023/06/16 17:50:33;;;;;;;8.90;3.20;;;32.20;35.00;;;;;;20893579;28;20629;-62
2023/06/16 18:00:35;;;;;;;6.68;3.00;;;37.30;30.00;;;;;;20838487;28;20251;-69
2023/06/16 18:10:37;;;;;;;3.80;3.20;;;38.60;28.60;;;;;;20841942;28;20204;-68
2023/06/16 18:20:43;;;;;;;5.60;3.33;;;32.20;32.80;;;;;;20843265;28;20245;-71
2023/06/16 18:30:44;;;;;;;5.80;3.70;;;29.00;36.10;;;;;;20842460;28;20359;-75
2023/06/16 18:40:46;;;;;;;5.47;3.80;;;27.20;38.90;;;;;;20841633;28;20236;-72
2023/06/16 18:50:48;;;;;;;9.27;4.47;;;26.10;40.80;;;;;;20841053;28;20205;-74
2023/06/16 19:00:50;;;;;;;7.83;4.87;;;25.40;42.40;;;;;;20851251;28;20236;-66
2023/06/16 19:10:51;;;;;;;5.67;4.20;;;24.70;44.30;;;;;;20838612;28;20660;-66
2023/06/16 19:20:53;;;;;;;11.73;7.43;;;24.20;45.70;;;;;;20851118;28;20343;-63
2023/06/16 19:30:55;;;;;;;10.07;4.53;;;23.90;46.70;;;;;;20837014;28;20210;-65
2023/06/16 19:40:56;;;;;;;9.53;4.40;;;23.60;47.50;;;;;;20850082;28;20240;-63
2023/06/16 19:50:58;;;;;;;9.77;4.47;;;23.30;48.10;;;;;;20836098;28;20205;-64
2023/06/16 20:01:00;;;;;;;5.77;4.17;;;23.00;48.50;;;;;;20852686;28;20331;-65
2023/06/16 20:11:02;;;;;;;16.33;5.00;;;22.70;50.00;;;;;;20848329;28;20254;-62
2023/06/16 20:21:04;;;;;;;5.93;4.93;;;22.40;51.20;;;;;;20831119;28;20236;-68
2023/06/16 20:31:05;;;;;;;7.10;4.63;;;22.30;51.50;;;;;;20829922;28;20303;-59
2023/06/16 20:41:08;;;;;;;10.80;5.23;;;22.10;51.20;;;;;;20829516;28;20298;-59
2023/06/16 20:51:09;;;;;;;8.73;4.40;;;21.90;51.00;;;;;;20830561;28;20656;-65
2023/06/16 21:01:13;;;;;;;10.93;4.03;;;21.80;51.20;;;;;;20851517;28;20330;-64
2023/06/16 21:11:15;;;;;;;11.73;4.83;;;21.70;51.70;;;;;;20841233;28;20224;-66
2023/06/16 21:21:17;;;;;;;8.37;4.27;;;21.60;52.00;;;;;;20829884;28;20310;-63
2023/06/16 21:31:19;;;;;;;5.80;4.10;;;21.40;52.00;;;;;;20840685;28;20629;-61
2023/06/16 21:41:23;;;;;;;5.87;4.20;;;21.30;52.70;;;;;;20853296;28;20236;-62
2023/06/16 21:51:25;;;;;;;7.67;4.47;;;21.10;52.90;;;;;;20842506;28;20219;-62
2023/06/16 22:01:27;;;;;;;9.37;4.37;;;21.00;53.40;;;;;;20843229;28;20228;-67
2023/06/16 22:11:28;;;;;;;7.30;4.20;;;20.90;53.80;;;;;;20842629;28;20298;-59
2023/06/16 22:21:33;;;;;;;6.50;4.70;;;20.70;54.10;;;;;;20842737;28;20239;-61
2023/06/16 22:31:36;;;;;;;7.93;4.60;;;20.60;54.70;;;;;;20843112;28;20273;-62
2023/06/16 22:41:38;;;;;;;6.63;4.60;;;20.30;55.80;;;;;;20840363;28;20238;-66
2023/06/16 22:51:40;;;;;;;4.80;4.30;;;20.20;56.40;;;;;;20840410;28;20623;-61
2023/06/16 23:01:41;;;;;;;6.97;5.17;;;19.90;57.20;;;;;;20840835;28;20332;-59
2023/06/16 23:11:43;;;;;;;8.60;4.87;;;19.70;57.60;;;;;;20839817;28;20203;-59
2023/06/16 23:21:45;;;;;;;6.43;4.83;;;19.60;58.10;;;;;;20838897;28;20279;-64
2023/06/16 23:31:48;;;;;;;7.03;4.80;;;19.40;58.60;;;;;;20836926;28;20209;-60
2023/06/16 23:41:49;;;;;;;8.40;5.17;;;19.20;59.10;;;;;;20836953;28;20325;-59
2023/06/16 23:51:51;;;;;;;7.53;5.20;;;19.00;59.70;;;;;;20836539;28;20207;-61
